East Lynn, Massachusetts
Current Conditions -  °F | °C
As of 7:53 AM on Monday 24 Nov 2014 (Local Time) from KBVY Reporting Station
Light Rain Light Rain  
Wind Chill: 53°   Ceiling: 500
Heat Index: 53°   Visibility: 4mi
Dew Point: 51°   Wind: 17mph
Humidity: 93%   Direction: 150°SSE
Pressure: 29.81"   Gusts: 26mph
Location:  42.4911°N, 70.9658°W
Report Text: KBVY 241253Z 15015G23KT 4SM -RA BR BKN005 BKN010 OVC014 12/11 A2981 RMK AO2 SLP088 P0007 T01170106
Loading
Personal Weather Stations






























Interactive Weather Map New forecast layout! Learn more

10-Day Weather Forecast

Advertisements
Track Severe Weather on mobile